Time;durP1;ratioP1;P1;durP2;ratioP2;P2;SDS_P1;SDS_P2;PMS_P1;PMS_P2;Temp;Humidity;BMP_temperature;BMP_pressure;BME280_temperature;BME280_humidity;BME280_pressure;Samples;Min_cycle;Max_cycle;Signal;HPM_P1;HPM_P2
2021/09/22 00:02:53;;;;;;;3.30;1.73;;;18.90;61.90;;;;;;20739768;28;20034;-62
2021/09/22 00:12:54;;;;;;;2.90;1.52;;;18.80;61.90;;;;;;20719171;28;20091;-63
2021/09/22 00:22:58;;;;;;;2.03;1.13;;;18.80;61.90;;;;;;20726763;28;20048;-62
2021/09/22 00:33:00;;;;;;;2.97;1.63;;;18.80;61.90;;;;;;20722209;28;20511;-62
2021/09/22 00:43:01;;;;;;;3.17;1.75;;;18.80;61.90;;;;;;20720743;28;20044;-63
2021/09/22 00:53:02;;;;;;;2.38;1.70;;;18.80;61.90;;;;;;20719122;28;20025;-62
2021/09/22 01:03:02;;;;;;;3.47;1.25;;;18.80;61.90;;;;;;20728180;28;20025;-63
2021/09/22 01:13:04;;;;;;;3.05;1.67;;;18.80;61.90;;;;;;20741951;28;20112;-63
2021/09/22 01:23:05;;;;;;;3.22;1.83;;;18.80;62.00;;;;;;20721388;28;20420;-63
2021/09/22 01:33:08;;;;;;;2.28;1.52;;;18.80;62.00;;;;;;20714139;28;20033;-63
2021/09/22 01:43:09;;;;;;;2.95;1.52;;;18.80;62.00;;;;;;20714899;28;20041;-62
2021/09/22 01:53:09;;;;;;;2.90;1.45;;;18.80;62.00;;;;;;20718285;28;20061;-62
2021/09/22 02:03:11;;;;;;;3.05;1.73;;;18.80;62.00;;;;;;20715184;28;20065;-63
2021/09/22 02:13:11;;;;;;;2.80;1.45;;;18.80;62.00;;;;;;20710710;28;20038;-63
2021/09/22 02:23:12;;;;;;;3.03;2.25;;;18.70;62.00;;;;;;20722762;28;20408;-63
2021/09/22 02:33:13;;;;;;;3.25;1.75;;;18.70;62.00;;;;;;20726559;28;20492;-62
2021/09/22 02:43:13;;;;;;;3.22;2.35;;;18.70;62.00;;;;;;20726792;28;20041;-62
2021/09/22 02:53:14;;;;;;;2.60;1.63;;;18.70;62.10;;;;;;20736176;28;20025;-63
2021/09/22 03:03:16;;;;;;;2.67;1.60;;;18.70;62.10;;;;;;20723239;28;20443;-63
2021/09/22 03:13:16;;;;;;;2.78;1.98;;;18.70;62.10;;;;;;20735247;28;20521;-62
2021/09/22 03:23:17;;;;;;;5.25;1.63;;;18.70;62.20;;;;;;20736213;28;20140;-59
2021/09/22 03:33:18;;;;;;;3.42;2.17;;;18.70;62.20;;;;;;20737443;28;20034;-59
2021/09/22 03:43:19;;;;;;;2.78;1.88;;;18.70;62.20;;;;;;20733931;28;20119;-59
2021/09/22 03:53:21;;;;;;;4.40;2.05;;;18.60;62.20;;;;;;20747156;28;20036;-62
2021/09/22 04:03:21;;;;;;;5.80;2.15;;;18.70;62.20;;;;;;20746198;28;20080;-62
2021/09/22 04:13:22;;;;;;;3.95;2.30;;;18.70;62.20;;;;;;20731875;28;20030;-62
2021/09/22 04:23:23;;;;;;;6.13;2.47;;;18.70;62.40;;;;;;20735666;28;20109;-61
2021/09/22 04:33:23;;;;;;;4.03;2.00;;;18.70;62.40;;;;;;20690279;28;20053;-61
2021/09/22 04:43:24;;;;;;;5.05;2.03;;;18.70;62.30;;;;;;20723002;28;20142;-60
2021/09/22 04:53:24;;;;;;;4.60;1.50;;;18.60;62.30;;;;;;20717913;28;20061;-62
2021/09/22 05:03:25;;;;;;;6.20;1.87;;;18.70;62.40;;;;;;20689047;28;20104;-59
2021/09/22 05:13:25;;;;;;;2.88;1.73;;;18.60;62.60;;;;;;20633160;28;20065;-58
2021/09/22 05:23:26;;;;;;;13.37;3.13;;;18.70;62.40;;;;;;20699662;28;20030;-62
2021/09/22 05:33:26;;;;;;;15.48;3.75;;;19.00;62.50;;;;;;20721157;28;20884;-58
2021/09/22 05:43:27;;;;;;;24.83;4.13;;;19.40;61.90;;;;;;20677083;28;20045;-57
2021/09/22 05:53:28;;;;;;;17.73;4.45;;;19.60;61.70;;;;;;20698066;28;20038;-61
2021/09/22 06:03:28;;;;;;;18.63;5.18;;;19.90;61.40;;;;;;20698635;28;20056;-61
2021/09/22 06:13:29;;;;;;;18.30;5.78;;;20.20;61.10;;;;;;20720744;28;20540;-60
2021/09/22 06:23:30;;;;;;;25.35;6.22;;;20.20;61.00;;;;;;20714560;28;20321;-61
2021/09/22 06:33:30;;;;;;;12.05;4.55;;;20.10;60.90;;;;;;20711025;28;20043;-61
2021/09/22 06:43:32;;;;;;;15.68;4.80;;;20.10;60.80;;;;;;20708036;28;20089;-61
2021/09/22 06:53:37;;;;;;;15.88;4.50;;;20.00;60.90;;;;;;20717985;28;20053;-60
2021/09/22 07:03:37;;;;;;;12.63;4.15;;;20.00;61.10;;;;;;20722308;28;20033;-61
2021/09/22 07:13:38;;;;;;;15.68;4.45;;;19.90;61.20;;;;;;20724014;28;20049;-61
2021/09/22 07:23:39;;;;;;;9.82;3.85;;;19.80;61.40;;;;;;20735943;28;20037;-61
2021/09/22 07:33:39;;;;;;;7.22;4.40;;;19.80;61.40;;;;;;20730092;28;20042;-61
2021/09/22 07:43:40;;;;;;;14.60;3.63;;;19.70;61.50;;;;;;20732564;28;20130;-61
2021/09/22 07:53:40;;;;;;;6.78;3.00;;;19.70;61.50;;;;;;20736855;28;20404;-61
2021/09/22 08:03:41;;;;;;;7.25;3.72;;;19.70;61.80;;;;;;20747393;28;20392;-56
2021/09/22 08:13:42;;;;;;;7.40;3.67;;;19.60;61.90;;;;;;20731673;28;20033;-53
2021/09/22 08:23:42;;;;;;;6.43;2.67;;;19.60;62.00;;;;;;20678057;28;20034;-57
2021/09/22 08:33:43;;;;;;;4.95;2.60;;;19.50;62.00;;;;;;20662236;28;20026;-59
2021/09/22 08:43:44;;;;;;;6.68;2.88;;;19.50;62.10;;;;;;20739921;28;20463;-58
2021/09/22 08:53:44;;;;;;;5.20;2.30;;;19.50;62.20;;;;;;20742756;28;20033;-54
2021/09/22 09:03:45;;;;;;;5.18;2.40;;;19.50;62.10;;;;;;20741904;28;20029;-58
2021/09/22 09:13:50;;;;;;;5.28;3.08;;;19.40;62.10;;;;;;20713466;28;20030;-56
2021/09/22 09:23:52;;;;;;;5.80;2.58;;;19.40;62.10;;;;;;20684020;28;20030;-60
2021/09/22 09:33:56;;;;;;;5.47;2.20;;;19.50;62.10;;;;;;20725302;28;20026;-58
2021/09/22 09:43:57;;;;;;;4.70;1.60;;;19.40;62.00;;;;;;20738198;28;20113;-57
2021/09/22 09:54:11;;;;;;;5.90;2.80;;;19.40;62.00;;;;;;20705335;28;20030;-59
2021/09/22 10:04:15;;;;;;;3.35;1.67;;;19.40;62.00;;;;;;20729386;28;20048;-57
2021/09/22 10:14:17;;;;;;;3.70;1.55;;;19.30;62.00;;;;;;20727614;28;20114;-60
2021/09/22 10:24:20;;;;;;;2.70;1.30;;;19.30;62.10;;;;;;20695209;28;20400;-59
2021/09/22 10:34:26;;;;;;;6.47;2.10;;;19.30;62.20;;;;;;20690799;28;20038;-62
2021/09/22 10:44:37;;;;;;;6.68;1.60;;;19.40;62.30;;;;;;20694053;28;20030;-62
2021/09/22 10:55:11;;;;;;;6.53;1.67;;;19.40;62.20;;;;;;20705715;28;20026;-56
2021/09/22 11:05:32;;;;;;;9.13;1.73;;;19.60;62.00;;;;;;20697059;28;20030;-56
2021/09/22 11:15:33;;;;;;;17.52;3.38;;;19.70;61.80;;;;;;20729856;28;20133;-60
2021/09/22 11:25:33;;;;;;;11.75;3.05;;;19.70;62.10;;;;;;20687023;28;20105;-61
2021/09/22 11:35:34;;;;;;;21.90;3.28;;;19.70;61.90;;;;;;20686762;28;20034;-62
2021/09/22 11:45:36;;;;;;;15.68;2.55;;;19.80;61.40;;;;;;20697066;28;20084;-61
2021/09/22 11:55:38;;;;;;;6.75;2.53;;;19.90;61.20;;;;;;20711935;28;20034;-61
2021/09/22 12:05:40;;;;;;;5.88;1.60;;;19.90;61.10;;;;;;20687122;28;20025;-61
2021/09/22 12:15:42;;;;;;;5.57;2.13;;;19.90;61.10;;;;;;20696372;28;20030;-60
2021/09/22 12:25:42;;;;;;;6.03;2.08;;;19.90;61.10;;;;;;20682758;28;20034;-60
2021/09/22 12:35:43;;;;;;;11.17;2.47;;;19.90;61.10;;;;;;20690784;28;20033;-61
2021/09/22 12:45:44;;;;;;;8.93;2.30;;;19.90;61.00;;;;;;20664599;28;20477;-60
2021/09/22 12:55:52;;;;;;;14.32;2.45;;;20.00;60.90;;;;;;20685519;28;20460;-55
2021/09/22 13:06:06;;;;;;;7.63;1.40;;;20.00;61.10;;;;;;20735420;28;20489;-58
2021/09/22 13:16:18;;;;;;;8.77;1.50;;;19.90;61.10;;;;;;20715281;28;20045;-58
2021/09/22 13:26:20;;;;;;;5.47;2.15;;;19.90;61.20;;;;;;20720736;28;20420;-62
2021/09/22 13:36:22;;;;;;;4.63;1.35;;;19.90;61.20;;;;;;20738443;28;20120;-61
2021/09/22 13:46:23;;;;;;;4.53;1.50;;;19.70;61.50;;;;;;20739361;28;20109;-62
2021/09/22 13:56:24;;;;;;;5.38;1.70;;;19.60;61.60;;;;;;20739033;28;20026;-59
2021/09/22 14:06:25;;;;;;;3.72;1.25;;;19.60;61.80;;;;;;20724385;28;20045;-58
2021/09/22 14:16:25;;;;;;;3.88;1.20;;;19.60;62.00;;;;;;20736745;28;20030;-59
2021/09/22 14:26:26;;;;;;;3.22;1.27;;;19.50;61.90;;;;;;20675003;28;20397;-58
2021/09/22 14:36:26;;;;;;;4.60;1.20;;;19.50;62.00;;;;;;20719256;28;20038;-61
2021/09/22 14:46:27;;;;;;;2.53;1.27;;;19.50;62.10;;;;;;20735899;28;20111;-62
2021/09/22 14:56:27;;;;;;;4.45;1.85;;;19.50;62.20;;;;;;20719209;28;20117;-60
2021/09/22 15:06:28;;;;;;;2.25;1.45;;;19.40;62.20;;;;;;20714541;28;20117;-59
2021/09/22 15:16:29;;;;;;;2.78;1.35;;;19.40;62.70;;;;;;20711761;28;20061;-58
2021/09/22 15:26:29;;;;;;;7.20;1.83;;;19.40;62.40;;;;;;20727152;28;20025;-57
2021/09/22 15:36:30;;;;;;;2.80;1.40;;;19.40;62.30;;;;;;20729960;28;20505;-57
2021/09/22 15:46:30;;;;;;;3.10;1.13;;;19.30;62.30;;;;;;20723570;28;20030;-62
2021/09/22 15:56:31;;;;;;;3.90;1.50;;;19.30;62.30;;;;;;20715390;28;20405;-62
2021/09/22 16:06:31;;;;;;;8.60;1.83;;;19.30;62.40;;;;;;20724767;28;20034;-59
2021/09/22 16:16:32;;;;;;;10.63;2.83;;;19.40;62.70;;;;;;20715244;28;20062;-59
2021/09/22 16:26:33;;;;;;;5.07;2.65;;;19.40;63.40;;;;;;20734486;28;20489;-62
2021/09/22 16:36:33;;;;;;;7.35;3.50;;;19.30;63.60;;;;;;20689187;28;20109;-61
2021/09/22 16:46:34;;;;;;;8.52;3.10;;;19.30;64.10;;;;;;20711888;28;20512;-62
2021/09/22 16:56:36;;;;;;;9.93;3.67;;;19.30;64.00;;;;;;20717382;28;20035;-61
2021/09/22 17:06:38;;;;;;;7.75;3.38;;;19.30;64.00;;;;;;20692138;28;20477;-63
2021/09/22 17:16:40;;;;;;;6.60;3.60;;;19.30;64.10;;;;;;20705364;28;20118;-62
2021/09/22 17:26:41;;;;;;;9.02;3.13;;;19.30;64.10;;;;;;20689253;28;20038;-61
2021/09/22 17:36:41;;;;;;;21.63;3.60;;;19.20;64.20;;;;;;20729187;28;20022;-59
2021/09/22 17:46:46;;;;;;;9.30;2.75;;;19.20;64.20;;;;;;20685835;28;20034;-63
2021/09/22 17:56:47;;;;;;;14.70;3.10;;;19.20;64.00;;;;;;20738059;28;20041;-63
2021/09/22 18:06:48;;;;;;;6.00;2.58;;;19.20;64.00;;;;;;20738808;28;20030;-56
2021/09/22 18:16:49;;;;;;;12.60;3.25;;;19.20;63.90;;;;;;20737800;28;20058;-59
2021/09/22 18:26:50;;;;;;;7.57;3.30;;;19.20;63.90;;;;;;20714570;28;20104;-59
2021/09/22 18:36:52;;;;;;;6.97;2.72;;;19.20;63.90;;;;;;20659603;28;20061;-62
2021/09/22 18:46:53;;;;;;;9.35;3.05;;;19.10;63.80;;;;;;20655312;28;20064;-58
2021/09/22 18:56:55;;;;;;;5.50;2.97;;;19.10;63.90;;;;;;20685823;28;20058;-59
2021/09/22 19:06:58;;;;;;;4.15;2.15;;;19.10;63.90;;;;;;20760926;28;20049;-60
2021/09/22 19:16:59;;;;;;;12.75;3.70;;;19.10;63.90;;;;;;20689047;28;20030;-62
2021/09/22 19:27:00;;;;;;;16.10;4.93;;;19.00;64.20;;;;;;20709814;28;20026;-62
2021/09/22 19:37:00;;;;;;;12.57;3.70;;;19.10;64.50;;;;;;20705742;28;20037;-62
2021/09/22 19:47:01;;;;;;;5.25;2.67;;;19.10;64.60;;;;;;20696182;28;21097;-63
2021/09/22 19:57:02;;;;;;;11.30;3.25;;;19.10;64.70;;;;;;20693967;28;20034;-60
2021/09/22 20:07:05;;;;;;;11.27;3.60;;;19.10;64.70;;;;;;20700431;28;20448;-59
2021/09/22 20:17:06;;;;;;;9.80;3.15;;;19.00;64.90;;;;;;20703627;28;20021;-60
2021/09/22 20:27:07;;;;;;;12.10;2.88;;;19.10;64.90;;;;;;20708659;28;20117;-61
2021/09/22 20:37:10;;;;;;;7.60;2.92;;;19.00;64.90;;;;;;20683243;28;20129;-61
2021/09/22 20:47:10;;;;;;;9.85;3.15;;;19.00;64.90;;;;;;20674752;28;20064;-61
2021/09/22 20:57:11;;;;;;;5.95;2.60;;;19.00;65.30;;;;;;20692727;28;20049;-61
2021/09/22 21:07:14;;;;;;;7.83;2.50;;;19.00;65.80;;;;;;20789780;23;20042;-55
2021/09/22 21:17:17;;;;;;;6.55;3.20;;;18.90;66.70;;;;;;20807617;28;20537;-56
2021/09/22 21:27:19;;;;;;;11.32;3.83;;;18.90;66.50;;;;;;20808688;28;20411;-55
2021/09/22 21:37:21;;;;;;;5.85;2.78;;;18.90;66.80;;;;;;20781952;28;20025;-55
2021/09/22 21:47:22;;;;;;;5.72;3.00;;;18.90;66.60;;;;;;20771507;28;20037;-56
2021/09/22 21:57:25;;;;;;;4.50;3.30;;;18.90;66.60;;;;;;20763955;28;20040;-54
2021/09/22 22:07:25;;;;;;;6.00;2.80;;;18.90;66.70;;;;;;20769280;28;21041;-55
2021/09/22 22:17:26;;;;;;;7.40;3.88;;;18.90;66.60;;;;;;20771349;28;20033;-58
2021/09/22 22:27:27;;;;;;;5.65;3.13;;;18.90;66.70;;;;;;20796644;28;20488;-54
2021/09/22 22:37:27;;;;;;;4.97;3.47;;;18.80;66.70;;;;;;20820105;28;20036;-56
2021/09/22 22:47:28;;;;;;;5.57;3.90;;;18.90;66.70;;;;;;20792970;28;20036;-53
2021/09/22 22:57:29;;;;;;;6.55;3.58;;;18.80;66.90;;;;;;20783715;28;20611;-55
2021/09/22 23:07:29;;;;;;;6.63;3.58;;;18.80;66.80;;;;;;20785545;28;20125;-55
2021/09/22 23:17:46;;;;;;;6.43;3.30;;;18.80;66.90;;;;;;20784999;28;20109;-57
2021/09/22 23:27:47;;;;;;;4.13;2.58;;;18.80;67.00;;;;;;20790916;28;20030;-54
2021/09/22 23:37:48;;;;;;;5.75;3.28;;;18.80;66.90;;;;;;20795236;28;20042;-57
2021/09/22 23:47:48;;;;;;;6.20;3.25;;;18.80;66.90;;;;;;20748621;28;20038;-57
2021/09/22 23:57:50;;;;;;;4.35;3.22;;;18.70;66.70;;;;;;20825422;28;20482;-55
